sensor_id;sensor_type;location;lat;lon;timestamp;P1;durP1;ratioP1;P2;durP2;ratioP2
4638;SDS011;2332;38.646;-9.154;2023-03-31T00:00:39;40.40;;;6.63;;
4638;SDS011;2332;38.646;-9.154;2023-03-31T00:03:05;34.70;;;6.83;;
4638;SDS011;2332;38.646;-9.154;2023-03-31T00:05:35;37.63;;;6.70;;
4638;SDS011;2332;38.646;-9.154;2023-03-31T00:08:01;42.90;;;7.73;;
4638;SDS011;2332;38.646;-9.154;2023-03-31T00:10:27;27.80;;;5.60;;
4638;SDS011;2332;38.646;-9.154;2023-03-31T00:12:53;22.53;;;5.37;;
4638;SDS011;2332;38.646;-9.154;2023-03-31T00:15:19;34.23;;;6.50;;
4638;SDS011;2332;38.646;-9.154;2023-03-31T00:17:44;37.80;;;6.90;;
4638;SDS011;2332;38.646;-9.154;2023-03-31T00:20:11;42.80;;;7.83;;
4638;SDS011;2332;38.646;-9.154;2023-03-31T00:22:37;31.33;;;6.13;;
4638;SDS011;2332;38.646;-9.154;2023-03-31T00:25:06;29.80;;;5.73;;
4638;SDS011;2332;38.646;-9.154;2023-03-31T00:27:32;29.87;;;5.17;;
4638;SDS011;2332;38.646;-9.154;2023-03-31T00:29:57;45.13;;;7.83;;
4638;SDS011;2332;38.646;-9.154;2023-03-31T00:32:23;37.73;;;6.23;;
4638;SDS011;2332;38.646;-9.154;2023-03-31T00:34:51;40.77;;;7.73;;
4638;SDS011;2332;38.646;-9.154;2023-03-31T00:37:16;29.17;;;5.30;;
4638;SDS011;2332;38.646;-9.154;2023-03-31T00:39:42;35.57;;;6.60;;
4638;SDS011;2332;38.646;-9.154;2023-03-31T00:42:09;45.87;;;7.13;;
4638;SDS011;2332;38.646;-9.154;2023-03-31T00:44:38;33.93;;;5.70;;
4638;SDS011;2332;38.646;-9.154;2023-03-31T00:47:22;38.40;;;5.93;;
4638;SDS011;2332;38.646;-9.154;2023-03-31T00:49:50;34.03;;;6.23;;
4638;SDS011;2332;38.646;-9.154;2023-03-31T00:52:22;42.17;;;7.00;;
4638;SDS011;2332;38.646;-9.154;2023-03-31T00:54:50;40.90;;;7.07;;
4638;SDS011;2332;38.646;-9.154;2023-03-31T00:57:18;44.77;;;7.30;;
4638;SDS011;2332;38.646;-9.154;2023-03-31T00:59:52;34.37;;;6.50;;
4638;SDS011;2332;38.646;-9.154;2023-03-31T01:02:18;44.70;;;6.53;;
4638;SDS011;2332;38.646;-9.154;2023-03-31T01:04:51;33.10;;;6.80;;
4638;SDS011;2332;38.646;-9.154;2023-03-31T01:07:39;35.33;;;6.83;;
4638;SDS011;2332;38.646;-9.154;2023-03-31T01:10:06;34.00;;;6.20;;
4638;SDS011;2332;38.646;-9.154;2023-03-31T01:12:33;40.67;;;6.23;;
4638;SDS011;2332;38.646;-9.154;2023-03-31T01:15:01;41.83;;;6.30;;
4638;SDS011;2332;38.646;-9.154;2023-03-31T01:17:28;39.90;;;6.80;;
4638;SDS011;2332;38.646;-9.154;2023-03-31T01:19:57;35.40;;;8.00;;
4638;SDS011;2332;38.646;-9.154;2023-03-31T01:27:54;30.13;;;5.57;;
4638;SDS011;2332;38.646;-9.154;2023-03-31T01:43:25;31.27;;;5.77;;
4638;SDS011;2332;38.646;-9.154;2023-03-31T01:45:56;38.67;;;7.03;;
4638;SDS011;2332;38.646;-9.154;2023-03-31T01:48:39;37.90;;;6.73;;
4638;SDS011;2332;38.646;-9.154;2023-03-31T01:51:13;33.67;;;5.80;;
4638;SDS011;2332;38.646;-9.154;2023-03-31T01:58:53;41.03;;;7.23;;
4638;SDS011;2332;38.646;-9.154;2023-03-31T02:01:25;41.20;;;7.60;;
4638;SDS011;2332;38.646;-9.154;2023-03-31T02:04:04;31.33;;;5.83;;
4638;SDS011;2332;38.646;-9.154;2023-03-31T02:06:35;39.50;;;7.33;;
4638;SDS011;2332;38.646;-9.154;2023-03-31T02:09:05;39.73;;;6.40;;
4638;SDS011;2332;38.646;-9.154;2023-03-31T02:11:33;44.10;;;8.27;;
4638;SDS011;2332;38.646;-9.154;2023-03-31T02:13:58;37.37;;;8.10;;
4638;SDS011;2332;38.646;-9.154;2023-03-31T02:16:26;35.40;;;6.87;;
4638;SDS011;2332;38.646;-9.154;2023-03-31T02:18:53;33.70;;;6.03;;
4638;SDS011;2332;38.646;-9.154;2023-03-31T02:21:26;31.87;;;6.07;;
4638;SDS011;2332;38.646;-9.154;2023-03-31T02:23:52;41.80;;;7.10;;
4638;SDS011;2332;38.646;-9.154;2023-03-31T02:26:18;43.73;;;6.83;;
4638;SDS011;2332;38.646;-9.154;2023-03-31T02:28:44;28.97;;;6.10;;
4638;SDS011;2332;38.646;-9.154;2023-03-31T02:33:51;40.73;;;8.03;;
4638;SDS011;2332;38.646;-9.154;2023-03-31T02:36:16;29.27;;;6.70;;
4638;SDS011;2332;38.646;-9.154;2023-03-31T02:38:43;44.40;;;7.03;;
4638;SDS011;2332;38.646;-9.154;2023-03-31T02:41:10;41.30;;;6.33;;
4638;SDS011;2332;38.646;-9.154;2023-03-31T02:43:35;41.23;;;7.37;;
4638;SDS011;2332;38.646;-9.154;2023-03-31T02:46:01;33.27;;;6.63;;
4638;SDS011;2332;38.646;-9.154;2023-03-31T02:48:27;33.33;;;6.57;;
4638;SDS011;2332;38.646;-9.154;2023-03-31T02:56:10;36.17;;;6.17;;
4638;SDS011;2332;38.646;-9.154;2023-03-31T03:09:07;35.43;;;6.87;;
4638;SDS011;2332;38.646;-9.154;2023-03-31T03:11:45;33.23;;;6.50;;
4638;SDS011;2332;38.646;-9.154;2023-03-31T03:16:40;40.77;;;6.70;;
4638;SDS011;2332;38.646;-9.154;2023-03-31T03:19:07;37.33;;;7.17;;
4638;SDS011;2332;38.646;-9.154;2023-03-31T03:21:33;43.27;;;6.80;;
4638;SDS011;2332;38.646;-9.154;2023-03-31T03:23:58;39.57;;;6.40;;
4638;SDS011;2332;38.646;-9.154;2023-03-31T03:26:24;41.43;;;6.90;;
4638;SDS011;2332;38.646;-9.154;2023-03-31T03:28:52;37.83;;;6.93;;
4638;SDS011;2332;38.646;-9.154;2023-03-31T03:31:18;39.03;;;7.23;;
4638;SDS011;2332;38.646;-9.154;2023-03-31T03:33:43;30.27;;;6.60;;
4638;SDS011;2332;38.646;-9.154;2023-03-31T03:36:09;40.63;;;6.43;;
4638;SDS011;2332;38.646;-9.154;2023-03-31T03:38:35;39.37;;;6.20;;
4638;SDS011;2332;38.646;-9.154;2023-03-31T03:41:01;36.23;;;7.93;;
4638;SDS011;2332;38.646;-9.154;2023-03-31T03:43:26;22.53;;;5.60;;
4638;SDS011;2332;38.646;-9.154;2023-03-31T03:45:51;43.17;;;8.23;;
4638;SDS011;2332;38.646;-9.154;2023-03-31T03:48:17;38.97;;;7.00;;
4638;SDS011;2332;38.646;-9.154;2023-03-31T03:50:46;31.43;;;6.50;;
4638;SDS011;2332;38.646;-9.154;2023-03-31T03:53:12;35.40;;;6.37;;
4638;SDS011;2332;38.646;-9.154;2023-03-31T03:55:37;31.20;;;5.63;;
4638;SDS011;2332;38.646;-9.154;2023-03-31T03:58:03;44.03;;;6.40;;
4638;SDS011;2332;38.646;-9.154;2023-03-31T04:00:28;44.00;;;7.00;;
4638;SDS011;2332;38.646;-9.154;2023-03-31T04:02:54;42.73;;;6.80;;
4638;SDS011;2332;38.646;-9.154;2023-03-31T04:05:19;24.93;;;6.00;;
4638;SDS011;2332;38.646;-9.154;2023-03-31T04:07:45;36.20;;;6.37;;
4638;SDS011;2332;38.646;-9.154;2023-03-31T04:10:10;49.43;;;5.97;;
4638;SDS011;2332;38.646;-9.154;2023-03-31T04:12:35;36.07;;;7.80;;
4638;SDS011;2332;38.646;-9.154;2023-03-31T04:15:01;39.07;;;6.00;;
4638;SDS011;2332;38.646;-9.154;2023-03-31T04:17:26;31.73;;;6.10;;
4638;SDS011;2332;38.646;-9.154;2023-03-31T04:20:02;44.43;;;6.33;;
4638;SDS011;2332;38.646;-9.154;2023-03-31T04:22:30;44.70;;;8.00;;
4638;SDS011;2332;38.646;-9.154;2023-03-31T04:24:59;35.00;;;7.20;;
4638;SDS011;2332;38.646;-9.154;2023-03-31T04:27:24;31.83;;;5.77;;
4638;SDS011;2332;38.646;-9.154;2023-03-31T04:29:53;33.63;;;6.00;;
4638;SDS011;2332;38.646;-9.154;2023-03-31T04:32:20;35.20;;;6.80;;
4638;SDS011;2332;38.646;-9.154;2023-03-31T04:34:46;23.80;;;5.87;;
4638;SDS011;2332;38.646;-9.154;2023-03-31T04:37:11;36.63;;;6.70;;
4638;SDS011;2332;38.646;-9.154;2023-03-31T04:39:37;39.83;;;6.50;;
4638;SDS011;2332;38.646;-9.154;2023-03-31T04:42:02;35.80;;;6.10;;
4638;SDS011;2332;38.646;-9.154;2023-03-31T04:44:28;46.63;;;7.60;;
4638;SDS011;2332;38.646;-9.154;2023-03-31T04:46:54;36.90;;;6.73;;
4638;SDS011;2332;38.646;-9.154;2023-03-31T04:49:19;44.10;;;7.00;;
4638;SDS011;2332;38.646;-9.154;2023-03-31T04:51:45;32.87;;;5.87;;
4638;SDS011;2332;38.646;-9.154;2023-03-31T04:54:11;43.43;;;6.73;;
4638;SDS011;2332;38.646;-9.154;2023-03-31T04:56:36;29.23;;;6.40;;
4638;SDS011;2332;38.646;-9.154;2023-03-31T04:59:02;38.03;;;7.40;;
4638;SDS011;2332;38.646;-9.154;2023-03-31T05:01:28;38.03;;;6.60;;
4638;SDS011;2332;38.646;-9.154;2023-03-31T05:03:57;34.50;;;6.90;;
4638;SDS011;2332;38.646;-9.154;2023-03-31T05:06:23;35.90;;;6.60;;
4638;SDS011;2332;38.646;-9.154;2023-03-31T05:08:48;28.50;;;5.53;;
4638;SDS011;2332;38.646;-9.154;2023-03-31T05:11:14;40.17;;;7.47;;
4638;SDS011;2332;38.646;-9.154;2023-03-31T05:13:39;38.53;;;7.40;;
4638;SDS011;2332;38.646;-9.154;2023-03-31T05:16:08;49.93;;;7.70;;
4638;SDS011;2332;38.646;-9.154;2023-03-31T05:18:34;58.50;;;7.53;;
4638;SDS011;2332;38.646;-9.154;2023-03-31T05:23:35;42.57;;;7.40;;
4638;SDS011;2332;38.646;-9.154;2023-03-31T05:26:00;55.10;;;8.13;;
4638;SDS011;2332;38.646;-9.154;2023-03-31T05:28:25;44.13;;;8.77;;
4638;SDS011;2332;38.646;-9.154;2023-03-31T05:30:51;35.47;;;7.87;;
4638;SDS011;2332;38.646;-9.154;2023-03-31T05:33:16;44.87;;;7.23;;
4638;SDS011;2332;38.646;-9.154;2023-03-31T05:35:42;49.03;;;7.80;;
4638;SDS011;2332;38.646;-9.154;2023-03-31T05:38:08;43.87;;;7.70;;
4638;SDS011;2332;38.646;-9.154;2023-03-31T05:40:33;36.80;;;7.93;;
4638;SDS011;2332;38.646;-9.154;2023-03-31T05:42:59;32.10;;;7.17;;
4638;SDS011;2332;38.646;-9.154;2023-03-31T05:45:24;45.50;;;8.20;;
4638;SDS011;2332;38.646;-9.154;2023-03-31T05:47:49;59.70;;;9.00;;
4638;SDS011;2332;38.646;-9.154;2023-03-31T05:50:15;37.77;;;8.27;;
4638;SDS011;2332;38.646;-9.154;2023-03-31T05:52:40;32.77;;;7.73;;
4638;SDS011;2332;38.646;-9.154;2023-03-31T05:55:06;38.60;;;8.37;;
4638;SDS011;2332;38.646;-9.154;2023-03-31T05:57:32;46.53;;;9.00;;
4638;SDS011;2332;38.646;-9.154;2023-03-31T05:59:57;42.23;;;9.40;;
4638;SDS011;2332;38.646;-9.154;2023-03-31T06:02:22;54.97;;;9.07;;
4638;SDS011;2332;38.646;-9.154;2023-03-31T06:04:48;53.60;;;9.13;;
4638;SDS011;2332;38.646;-9.154;2023-03-31T06:07:14;46.00;;;9.37;;
4638;SDS011;2332;38.646;-9.154;2023-03-31T06:09:41;50.33;;;8.90;;
4638;SDS011;2332;38.646;-9.154;2023-03-31T06:12:07;40.90;;;8.43;;
4638;SDS011;2332;38.646;-9.154;2023-03-31T06:14:32;58.03;;;9.90;;
4638;SDS011;2332;38.646;-9.154;2023-03-31T06:16:58;41.37;;;7.97;;
4638;SDS011;2332;38.646;-9.154;2023-03-31T06:19:23;47.27;;;8.00;;
4638;SDS011;2332;38.646;-9.154;2023-03-31T06:21:49;44.87;;;7.93;;
4638;SDS011;2332;38.646;-9.154;2023-03-31T06:24:14;46.13;;;9.30;;
4638;SDS011;2332;38.646;-9.154;2023-03-31T06:26:40;56.93;;;10.53;;
4638;SDS011;2332;38.646;-9.154;2023-03-31T06:29:05;56.60;;;9.23;;
4638;SDS011;2332;38.646;-9.154;2023-03-31T06:31:30;56.40;;;10.80;;
4638;SDS011;2332;38.646;-9.154;2023-03-31T06:33:56;53.37;;;10.27;;
4638;SDS011;2332;38.646;-9.154;2023-03-31T06:36:21;64.97;;;10.40;;
4638;SDS011;2332;38.646;-9.154;2023-03-31T06:38:47;47.77;;;9.60;;
4638;SDS011;2332;38.646;-9.154;2023-03-31T06:41:13;55.83;;;11.10;;
4638;SDS011;2332;38.646;-9.154;2023-03-31T06:43:39;53.13;;;10.77;;
4638;SDS011;2332;38.646;-9.154;2023-03-31T06:46:05;55.97;;;12.00;;
4638;SDS011;2332;38.646;-9.154;2023-03-31T06:48:30;46.13;;;8.67;;
4638;SDS011;2332;38.646;-9.154;2023-03-31T06:50:58;56.77;;;9.90;;
4638;SDS011;2332;38.646;-9.154;2023-03-31T06:53:23;49.03;;;10.30;;
4638;SDS011;2332;38.646;-9.154;2023-03-31T06:55:49;52.10;;;9.97;;
4638;SDS011;2332;38.646;-9.154;2023-03-31T06:58:14;49.23;;;9.47;;
4638;SDS011;2332;38.646;-9.154;2023-03-31T07:00:40;59.13;;;11.20;;
4638;SDS011;2332;38.646;-9.154;2023-03-31T07:03:05;58.23;;;14.00;;
4638;SDS011;2332;38.646;-9.154;2023-03-31T07:05:32;48.70;;;12.60;;
4638;SDS011;2332;38.646;-9.154;2023-03-31T07:07:58;55.77;;;10.83;;
4638;SDS011;2332;38.646;-9.154;2023-03-31T07:10:25;54.43;;;10.77;;
4638;SDS011;2332;38.646;-9.154;2023-03-31T07:12:50;46.23;;;9.33;;
4638;SDS011;2332;38.646;-9.154;2023-03-31T07:15:16;50.60;;;10.80;;
4638;SDS011;2332;38.646;-9.154;2023-03-31T07:17:42;57.20;;;9.67;;
4638;SDS011;2332;38.646;-9.154;2023-03-31T07:20:08;54.73;;;11.80;;
4638;SDS011;2332;38.646;-9.154;2023-03-31T07:22:39;57.13;;;10.53;;
4638;SDS011;2332;38.646;-9.154;2023-03-31T07:25:06;56.00;;;10.67;;
4638;SDS011;2332;38.646;-9.154;2023-03-31T07:27:31;51.97;;;9.80;;
4638;SDS011;2332;38.646;-9.154;2023-03-31T07:29:56;48.77;;;10.37;;
4638;SDS011;2332;38.646;-9.154;2023-03-31T07:32:22;56.97;;;9.93;;
4638;SDS011;2332;38.646;-9.154;2023-03-31T07:34:47;62.03;;;11.63;;
4638;SDS011;2332;38.646;-9.154;2023-03-31T07:37:13;46.77;;;9.83;;
4638;SDS011;2332;38.646;-9.154;2023-03-31T07:39:38;46.10;;;9.93;;
4638;SDS011;2332;38.646;-9.154;2023-03-31T07:42:04;55.37;;;10.50;;
4638;SDS011;2332;38.646;-9.154;2023-03-31T07:44:31;51.17;;;9.60;;
4638;SDS011;2332;38.646;-9.154;2023-03-31T07:46:56;51.10;;;9.80;;
4638;SDS011;2332;38.646;-9.154;2023-03-31T07:49:22;54.97;;;10.93;;
4638;SDS011;2332;38.646;-9.154;2023-03-31T07:51:48;57.83;;;9.13;;
4638;SDS011;2332;38.646;-9.154;2023-03-31T07:54:13;48.53;;;9.80;;
4638;SDS011;2332;38.646;-9.154;2023-03-31T07:56:38;56.70;;;9.03;;
4638;SDS011;2332;38.646;-9.154;2023-03-31T07:59:04;51.83;;;10.43;;
4638;SDS011;2332;38.646;-9.154;2023-03-31T08:01:29;40.53;;;9.27;;
4638;SDS011;2332;38.646;-9.154;2023-03-31T08:03:54;41.57;;;8.27;;
4638;SDS011;2332;38.646;-9.154;2023-03-31T08:06:21;52.23;;;9.70;;
4638;SDS011;2332;38.646;-9.154;2023-03-31T08:08:47;71.07;;;13.63;;
4638;SDS011;2332;38.646;-9.154;2023-03-31T08:11:13;42.20;;;8.70;;
4638;SDS011;2332;38.646;-9.154;2023-03-31T08:13:38;46.57;;;10.73;;
4638;SDS011;2332;38.646;-9.154;2023-03-31T08:16:04;46.77;;;9.57;;
4638;SDS011;2332;38.646;-9.154;2023-03-31T08:18:30;50.90;;;10.30;;
4638;SDS011;2332;38.646;-9.154;2023-03-31T08:20:55;47.50;;;9.57;;
4638;SDS011;2332;38.646;-9.154;2023-03-31T08:23:20;39.97;;;7.90;;
4638;SDS011;2332;38.646;-9.154;2023-03-31T08:25:46;41.10;;;7.47;;
4638;SDS011;2332;38.646;-9.154;2023-03-31T08:28:12;43.03;;;9.47;;
4638;SDS011;2332;38.646;-9.154;2023-03-31T08:30:38;54.00;;;8.57;;
4638;SDS011;2332;38.646;-9.154;2023-03-31T08:33:04;38.37;;;8.50;;
4638;SDS011;2332;38.646;-9.154;2023-03-31T08:35:30;49.67;;;9.30;;
4638;SDS011;2332;38.646;-9.154;2023-03-31T08:37:55;40.20;;;8.00;;
4638;SDS011;2332;38.646;-9.154;2023-03-31T08:40:22;35.30;;;8.07;;
4638;SDS011;2332;38.646;-9.154;2023-03-31T08:42:49;39.77;;;7.37;;
4638;SDS011;2332;38.646;-9.154;2023-03-31T08:47:50;38.33;;;7.37;;
4638;SDS011;2332;38.646;-9.154;2023-03-31T08:50:18;43.33;;;8.33;;
4638;SDS011;2332;38.646;-9.154;2023-03-31T08:52:49;43.17;;;9.07;;
4638;SDS011;2332;38.646;-9.154;2023-03-31T08:55:19;37.47;;;7.70;;
4638;SDS011;2332;38.646;-9.154;2023-03-31T08:57:58;38.63;;;8.60;;
4638;SDS011;2332;38.646;-9.154;2023-03-31T09:00:24;41.10;;;7.57;;
4638;SDS011;2332;38.646;-9.154;2023-03-31T09:03:02;33.10;;;7.40;;
4638;SDS011;2332;38.646;-9.154;2023-03-31T09:08:17;30.03;;;7.00;;
4638;SDS011;2332;38.646;-9.154;2023-03-31T09:10:57;28.47;;;6.83;;
4638;SDS011;2332;38.646;-9.154;2023-03-31T09:13:39;33.90;;;6.47;;
4638;SDS011;2332;38.646;-9.154;2023-03-31T09:16:15;35.00;;;6.50;;
4638;SDS011;2332;38.646;-9.154;2023-03-31T09:18:41;29.93;;;6.50;;
4638;SDS011;2332;38.646;-9.154;2023-03-31T09:26:39;39.47;;;6.70;;
4638;SDS011;2332;38.646;-9.154;2023-03-31T09:29:10;31.00;;;5.83;;
4638;SDS011;2332;38.646;-9.154;2023-03-31T09:31:40;30.07;;;6.90;;
4638;SDS011;2332;38.646;-9.154;2023-03-31T09:34:11;23.80;;;4.43;;
4638;SDS011;2332;38.646;-9.154;2023-03-31T09:36:37;21.47;;;5.20;;
4638;SDS011;2332;38.646;-9.154;2023-03-31T09:39:03;22.73;;;5.67;;
4638;SDS011;2332;38.646;-9.154;2023-03-31T09:41:29;24.73;;;5.70;;
4638;SDS011;2332;38.646;-9.154;2023-03-31T09:43:54;22.30;;;5.53;;
4638;SDS011;2332;38.646;-9.154;2023-03-31T09:46:25;29.30;;;6.57;;
4638;SDS011;2332;38.646;-9.154;2023-03-31T09:49:00;23.40;;;5.10;;
4638;SDS011;2332;38.646;-9.154;2023-03-31T09:51:29;17.37;;;4.90;;
4638;SDS011;2332;38.646;-9.154;2023-03-31T09:54:01;29.50;;;5.93;;
4638;SDS011;2332;38.646;-9.154;2023-03-31T09:59:11;30.00;;;5.80;;
4638;SDS011;2332;38.646;-9.154;2023-03-31T10:01:36;28.90;;;6.90;;
4638;SDS011;2332;38.646;-9.154;2023-03-31T10:04:02;39.30;;;7.13;;
4638;SDS011;2332;38.646;-9.154;2023-03-31T10:06:32;24.73;;;6.07;;
4638;SDS011;2332;38.646;-9.154;2023-03-31T10:09:02;27.90;;;5.50;;
4638;SDS011;2332;38.646;-9.154;2023-03-31T10:11:29;23.30;;;6.00;;
4638;SDS011;2332;38.646;-9.154;2023-03-31T10:14:00;36.83;;;5.80;;
4638;SDS011;2332;38.646;-9.154;2023-03-31T10:16:32;21.43;;;5.67;;
4638;SDS011;2332;38.646;-9.154;2023-03-31T10:19:31;27.27;;;7.20;;
4638;SDS011;2332;38.646;-9.154;2023-03-31T10:24:20;31.70;;;6.00;;
4638;SDS011;2332;38.646;-9.154;2023-03-31T10:26:51;30.20;;;7.00;;
4638;SDS011;2332;38.646;-9.154;2023-03-31T10:29:18;26.33;;;6.00;;
4638;SDS011;2332;38.646;-9.154;2023-03-31T10:31:46;28.40;;;5.87;;
4638;SDS011;2332;38.646;-9.154;2023-03-31T10:34:12;32.20;;;6.20;;
4638;SDS011;2332;38.646;-9.154;2023-03-31T10:36:43;28.90;;;5.80;;
4638;SDS011;2332;38.646;-9.154;2023-03-31T10:39:10;32.23;;;6.40;;
4638;SDS011;2332;38.646;-9.154;2023-03-31T10:41:38;31.80;;;6.80;;
4638;SDS011;2332;38.646;-9.154;2023-03-31T10:44:04;37.90;;;7.10;;
4638;SDS011;2332;38.646;-9.154;2023-03-31T10:49:14;29.10;;;7.20;;
4638;SDS011;2332;38.646;-9.154;2023-03-31T10:51:47;37.30;;;8.30;;
4638;SDS011;2332;38.646;-9.154;2023-03-31T10:54:12;31.87;;;6.77;;
4638;SDS011;2332;38.646;-9.154;2023-03-31T10:56:42;35.93;;;6.90;;
4638;SDS011;2332;38.646;-9.154;2023-03-31T11:01:40;29.83;;;7.53;;
4638;SDS011;2332;38.646;-9.154;2023-03-31T11:07:02;35.70;;;8.00;;
4638;SDS011;2332;38.646;-9.154;2023-03-31T11:14:45;36.60;;;8.57;;
4638;SDS011;2332;38.646;-9.154;2023-03-31T11:30:53;28.13;;;6.50;;
4638;SDS011;2332;38.646;-9.154;2023-03-31T11:33:27;44.73;;;8.47;;
4638;SDS011;2332;38.646;-9.154;2023-03-31T11:41:41;39.57;;;7.93;;
4638;SDS011;2332;38.646;-9.154;2023-03-31T11:44:11;32.97;;;7.33;;
4638;SDS011;2332;38.646;-9.154;2023-03-31T11:46:56;39.27;;;7.70;;
4638;SDS011;2332;38.646;-9.154;2023-03-31T11:49:28;37.47;;;7.40;;
4638;SDS011;2332;38.646;-9.154;2023-03-31T11:51:56;44.20;;;8.10;;
4638;SDS011;2332;38.646;-9.154;2023-03-31T11:54:58;29.73;;;7.73;;
4638;SDS011;2332;38.646;-9.154;2023-03-31T11:57:16;36.83;;;8.77;;
4638;SDS011;2332;38.646;-9.154;2023-03-31T11:59:52;35.23;;;8.13;;
4638;SDS011;2332;38.646;-9.154;2023-03-31T12:02:20;47.50;;;9.67;;
4638;SDS011;2332;38.646;-9.154;2023-03-31T12:04:51;35.60;;;9.87;;
4638;SDS011;2332;38.646;-9.154;2023-03-31T12:10:13;29.57;;;7.10;;
4638;SDS011;2332;38.646;-9.154;2023-03-31T12:17:44;27.20;;;6.43;;
4638;SDS011;2332;38.646;-9.154;2023-03-31T12:20:14;40.63;;;7.77;;
4638;SDS011;2332;38.646;-9.154;2023-03-31T12:22:44;27.00;;;7.20;;
4638;SDS011;2332;38.646;-9.154;2023-03-31T12:25:11;27.23;;;6.00;;
4638;SDS011;2332;38.646;-9.154;2023-03-31T12:27:42;27.50;;;6.90;;
4638;SDS011;2332;38.646;-9.154;2023-03-31T12:32:35;29.97;;;6.57;;
4638;SDS011;2332;38.646;-9.154;2023-03-31T12:35:03;32.67;;;7.50;;
4638;SDS011;2332;38.646;-9.154;2023-03-31T12:38:03;24.63;;;6.03;;
4638;SDS011;2332;38.646;-9.154;2023-03-31T12:43:07;43.73;;;7.80;;
4638;SDS011;2332;38.646;-9.154;2023-03-31T12:45:46;25.50;;;7.00;;
4638;SDS011;2332;38.646;-9.154;2023-03-31T12:48:26;35.50;;;7.00;;
4638;SDS011;2332;38.646;-9.154;2023-03-31T12:55:57;27.87;;;6.77;;
4638;SDS011;2332;38.646;-9.154;2023-03-31T13:01:15;28.43;;;7.03;;
4638;SDS011;2332;38.646;-9.154;2023-03-31T13:03:43;29.53;;;7.20;;
4638;SDS011;2332;38.646;-9.154;2023-03-31T13:06:55;35.03;;;6.53;;
4638;SDS011;2332;38.646;-9.154;2023-03-31T13:16:41;30.77;;;6.40;;
4638;SDS011;2332;38.646;-9.154;2023-03-31T13:19:08;30.77;;;6.93;;
4638;SDS011;2332;38.646;-9.154;2023-03-31T13:21:53;39.03;;;7.60;;
4638;SDS011;2332;38.646;-9.154;2023-03-31T13:24:23;31.13;;;6.03;;
4638;SDS011;2332;38.646;-9.154;2023-03-31T13:26:50;28.50;;;6.37;;
4638;SDS011;2332;38.646;-9.154;2023-03-31T13:29:21;28.40;;;6.10;;
4638;SDS011;2332;38.646;-9.154;2023-03-31T13:34:38;39.47;;;7.00;;
4638;SDS011;2332;38.646;-9.154;2023-03-31T13:37:12;40.67;;;7.80;;
4638;SDS011;2332;38.646;-9.154;2023-03-31T13:39:43;30.03;;;7.43;;
4638;SDS011;2332;38.646;-9.154;2023-03-31T14:01:09;28.13;;;4.70;;
4638;SDS011;2332;38.646;-9.154;2023-03-31T14:08:46;32.87;;;6.70;;
4638;SDS011;2332;38.646;-9.154;2023-03-31T14:11:17;26.70;;;6.23;;
4638;SDS011;2332;38.646;-9.154;2023-03-31T14:13:42;37.00;;;8.20;;
4638;SDS011;2332;38.646;-9.154;2023-03-31T14:16:08;38.60;;;6.60;;
4638;SDS011;2332;38.646;-9.154;2023-03-31T14:18:34;33.47;;;7.40;;
4638;SDS011;2332;38.646;-9.154;2023-03-31T14:34:17;24.77;;;6.30;;
4638;SDS011;2332;38.646;-9.154;2023-03-31T14:39:16;27.37;;;6.00;;
4638;SDS011;2332;38.646;-9.154;2023-03-31T14:41:45;24.23;;;5.67;;
4638;SDS011;2332;38.646;-9.154;2023-03-31T14:44:14;28.50;;;5.43;;
4638;SDS011;2332;38.646;-9.154;2023-03-31T14:46:42;31.77;;;7.03;;
4638;SDS011;2332;38.646;-9.154;2023-03-31T14:49:21;27.53;;;6.63;;
4638;SDS011;2332;38.646;-9.154;2023-03-31T14:51:50;27.73;;;5.70;;
4638;SDS011;2332;38.646;-9.154;2023-03-31T14:54:17;29.47;;;6.53;;
4638;SDS011;2332;38.646;-9.154;2023-03-31T14:56:47;28.90;;;6.93;;
4638;SDS011;2332;38.646;-9.154;2023-03-31T14:59:21;30.30;;;6.60;;
4638;SDS011;2332;38.646;-9.154;2023-03-31T15:01:47;32.13;;;8.13;;
4638;SDS011;2332;38.646;-9.154;2023-03-31T15:04:14;28.10;;;5.90;;
4638;SDS011;2332;38.646;-9.154;2023-03-31T15:06:40;38.30;;;6.97;;
4638;SDS011;2332;38.646;-9.154;2023-03-31T15:09:06;24.80;;;6.63;;
4638;SDS011;2332;38.646;-9.154;2023-03-31T15:11:32;23.83;;;5.07;;
4638;SDS011;2332;38.646;-9.154;2023-03-31T15:13:58;28.27;;;6.17;;
4638;SDS011;2332;38.646;-9.154;2023-03-31T15:16:29;32.30;;;6.70;;
4638;SDS011;2332;38.646;-9.154;2023-03-31T15:18:55;37.20;;;7.03;;
4638;SDS011;2332;38.646;-9.154;2023-03-31T15:21:22;38.63;;;6.30;;
4638;SDS011;2332;38.646;-9.154;2023-03-31T15:23:50;21.20;;;4.63;;
4638;SDS011;2332;38.646;-9.154;2023-03-31T15:26:16;32.27;;;6.33;;
4638;SDS011;2332;38.646;-9.154;2023-03-31T15:28:48;29.90;;;5.27;;
4638;SDS011;2332;38.646;-9.154;2023-03-31T15:31:15;29.80;;;5.87;;
4638;SDS011;2332;38.646;-9.154;2023-03-31T15:33:41;31.80;;;7.23;;
4638;SDS011;2332;38.646;-9.154;2023-03-31T15:36:07;25.17;;;6.13;;
4638;SDS011;2332;38.646;-9.154;2023-03-31T15:38:32;28.83;;;6.07;;
4638;SDS011;2332;38.646;-9.154;2023-03-31T15:40:58;30.70;;;6.00;;
4638;SDS011;2332;38.646;-9.154;2023-03-31T15:45:56;28.63;;;5.97;;
4638;SDS011;2332;38.646;-9.154;2023-03-31T15:48:22;24.10;;;5.20;;
4638;SDS011;2332;38.646;-9.154;2023-03-31T15:50:50;31.83;;;7.10;;
4638;SDS011;2332;38.646;-9.154;2023-03-31T15:53:24;27.90;;;6.60;;
4638;SDS011;2332;38.646;-9.154;2023-03-31T15:55:52;27.03;;;6.53;;
4638;SDS011;2332;38.646;-9.154;2023-03-31T15:58:18;29.87;;;6.00;;
4638;SDS011;2332;38.646;-9.154;2023-03-31T16:00:44;31.97;;;6.97;;
4638;SDS011;2332;38.646;-9.154;2023-03-31T16:03:18;35.43;;;6.50;;
4638;SDS011;2332;38.646;-9.154;2023-03-31T16:05:49;30.83;;;5.00;;
4638;SDS011;2332;38.646;-9.154;2023-03-31T16:08:19;28.30;;;6.00;;
4638;SDS011;2332;38.646;-9.154;2023-03-31T16:10:46;17.47;;;4.67;;
4638;SDS011;2332;38.646;-9.154;2023-03-31T16:13:16;19.60;;;5.70;;
4638;SDS011;2332;38.646;-9.154;2023-03-31T16:15:47;22.07;;;5.33;;
4638;SDS011;2332;38.646;-9.154;2023-03-31T16:18:17;23.10;;;5.43;;
4638;SDS011;2332;38.646;-9.154;2023-03-31T16:20:52;30.20;;;6.00;;
4638;SDS011;2332;38.646;-9.154;2023-03-31T16:23:18;28.57;;;6.10;;
4638;SDS011;2332;38.646;-9.154;2023-03-31T16:25:45;40.90;;;7.90;;
4638;SDS011;2332;38.646;-9.154;2023-03-31T16:28:15;22.70;;;5.33;;
4638;SDS011;2332;38.646;-9.154;2023-03-31T16:30:43;28.07;;;6.67;;
4638;SDS011;2332;38.646;-9.154;2023-03-31T16:33:10;38.33;;;6.47;;
4638;SDS011;2332;38.646;-9.154;2023-03-31T16:35:37;27.10;;;6.53;;
4638;SDS011;2332;38.646;-9.154;2023-03-31T16:38:04;31.67;;;5.83;;
4638;SDS011;2332;38.646;-9.154;2023-03-31T16:40:30;28.33;;;5.80;;
4638;SDS011;2332;38.646;-9.154;2023-03-31T16:43:18;27.03;;;5.67;;
4638;SDS011;2332;38.646;-9.154;2023-03-31T16:45:47;30.10;;;6.53;;
4638;SDS011;2332;38.646;-9.154;2023-03-31T16:48:13;30.13;;;5.00;;
4638;SDS011;2332;38.646;-9.154;2023-03-31T16:50:38;18.77;;;3.87;;
4638;SDS011;2332;38.646;-9.154;2023-03-31T16:53:05;24.77;;;6.70;;
4638;SDS011;2332;38.646;-9.154;2023-03-31T16:55:30;32.93;;;6.10;;
4638;SDS011;2332;38.646;-9.154;2023-03-31T16:57:56;43.60;;;7.07;;
4638;SDS011;2332;38.646;-9.154;2023-03-31T17:00:23;32.53;;;6.77;;
4638;SDS011;2332;38.646;-9.154;2023-03-31T17:02:48;36.37;;;8.07;;
4638;SDS011;2332;38.646;-9.154;2023-03-31T17:05:14;28.77;;;7.17;;
4638;SDS011;2332;38.646;-9.154;2023-03-31T17:07:39;33.57;;;7.17;;
4638;SDS011;2332;38.646;-9.154;2023-03-31T17:10:05;35.37;;;6.73;;
4638;SDS011;2332;38.646;-9.154;2023-03-31T17:12:31;36.60;;;8.37;;
4638;SDS011;2332;38.646;-9.154;2023-03-31T17:14:56;42.07;;;8.40;;
4638;SDS011;2332;38.646;-9.154;2023-03-31T17:17:24;34.43;;;7.60;;
4638;SDS011;2332;38.646;-9.154;2023-03-31T17:19:52;34.27;;;8.20;;
4638;SDS011;2332;38.646;-9.154;2023-03-31T17:22:18;42.00;;;7.90;;
4638;SDS011;2332;38.646;-9.154;2023-03-31T17:24:43;41.30;;;8.37;;
4638;SDS011;2332;38.646;-9.154;2023-03-31T17:27:09;39.90;;;7.30;;
4638;SDS011;2332;38.646;-9.154;2023-03-31T17:29:34;41.67;;;7.63;;
4638;SDS011;2332;38.646;-9.154;2023-03-31T17:32:00;46.20;;;9.83;;
4638;SDS011;2332;38.646;-9.154;2023-03-31T17:34:25;41.17;;;8.60;;
4638;SDS011;2332;38.646;-9.154;2023-03-31T17:36:51;44.60;;;7.90;;
4638;SDS011;2332;38.646;-9.154;2023-03-31T17:39:18;36.33;;;7.57;;
4638;SDS011;2332;38.646;-9.154;2023-03-31T17:41:44;43.63;;;7.77;;